Time;durP1;ratioP1;P1;durP2;ratioP2;P2;SDS_P1;SDS_P2;PMS_P1;PMS_P2;Temp;Humidity;BMP_temperature;BMP_pressure;BME280_temperature;BME280_humidity;BME280_pressure;Samples;Min_cycle;Max_cycle;Signal;HPM_P1;HPM_P2
2022/01/24 00:02:07;;;;;;;30.55;22.88;;;;;;;6.66;84.53;103429.91;4862769;29;20045;-48
2022/01/24 00:04:36;;;;;;;27.92;22.98;;;;;;;6.66;84.95;103428.06;4862928;29;20076;-47
2022/01/24 00:07:05;;;;;;;26.88;22.08;;;;;;;6.67;85.43;103428.91;4862688;29;20045;-48
2022/01/24 00:09:33;;;;;;;28.00;21.17;;;;;;;6.69;84.77;103425.00;4862382;29;20496;-46
2022/01/24 00:12:13;;;;;;;26.42;20.60;;;;;;;6.69;84.09;103421.47;4862739;29;20057;-50
2022/01/24 00:15:00;;;;;;;26.70;21.02;;;;;;;6.68;83.28;103420.59;4862696;29;20046;-47
2022/01/24 00:17:34;;;;;;;27.33;20.58;;;;;;;6.66;82.07;103414.50;4862609;29;20045;-44
2022/01/24 00:28:10;;;;;;;25.30;18.50;;;;;;;6.66;81.65;103422.63;4844527;29;19931;-47
2022/01/24 00:30:38;;;;;;;25.40;19.05;;;;;;;6.65;81.51;103415.53;4861671;29;20056;-47
2022/01/24 00:33:06;;;;;;;25.27;19.60;;;;;;;6.63;81.01;103417.56;4862573;29;20110;-47
2022/01/24 00:35:34;;;;;;;23.80;19.23;;;;;;;6.62;81.44;103410.47;4862507;29;20049;-46
2022/01/24 00:38:02;;;;;;;23.48;18.15;;;;;;;6.64;81.20;103413.00;4862484;29;20049;-47
2022/01/24 00:40:37;;;;;;;24.60;19.35;;;;;;;6.65;80.98;103409.28;4860937;29;20045;-47
2022/01/24 00:43:16;;;;;;;24.10;19.45;;;;;;;6.64;80.53;103399.44;4861644;29;20041;-46
2022/01/24 00:46:03;;;;;;;24.85;18.77;;;;;;;6.65;80.91;103402.00;4861987;29;20113;-49
2022/01/24 00:54:02;;;;;;;22.35;18.38;;;;;;;6.63;79.24;103406.75;4861959;29;20045;-47
2022/01/24 00:56:30;;;;;;;23.13;18.60;;;;;;;6.63;79.66;103404.03;4862125;29;20489;-46
2022/01/24 00:58:57;;;;;;;23.00;18.35;;;;;;;6.64;79.43;103402.16;4861812;29;20465;-48
2022/01/24 01:01:25;;;;;;;24.25;17.70;;;;;;;6.65;79.43;103404.69;4861330;29;20045;-49
2022/01/24 01:03:53;;;;;;;20.15;16.27;;;;;;;6.64;79.25;103397.63;4862095;29;20056;-48
2022/01/24 01:06:20;;;;;;;22.92;17.75;;;;;;;6.64;78.71;103403.03;4862284;29;20457;-46
2022/01/24 01:19:57;;;;;;;23.60;16.85;;;;;;;6.66;78.07;103400.97;4847569;29;20053;-46
2022/01/24 01:22:24;;;;;;;21.85;17.42;;;;;;;6.66;78.23;103400.13;4860826;29;20492;-45
2022/01/24 01:24:54;;;;;;;21.65;16.88;;;;;;;6.61;78.35;103389.81;4861682;29;20049;-45
2022/01/24 01:27:28;;;;;;;19.88;16.13;;;;;;;6.61;78.08;103397.94;4861688;29;20049;-47
2022/01/24 01:30:02;;;;;;;20.67;15.88;;;;;;;6.57;78.06;103396.63;4862115;29;20101;-46
2022/01/24 01:32:55;;;;;;;18.45;14.73;;;;;;;6.56;78.21;103389.50;4861321;29;20049;-49
2022/01/24 01:55:08;;;;;;;18.15;13.80;;;;;;;6.59;77.05;103402.69;4860518;29;20045;-47
2022/01/24 01:57:25;;;;;;;20.15;14.65;;;;;;;6.56;76.68;103406.59;4859539;29;20122;-46
2022/01/24 01:59:53;;;;;;;17.80;14.48;;;;;;;6.53;76.91;103403.41;4861024;29;20053;-46
2022/01/24 02:02:20;;;;;;;16.30;12.80;;;;;;;6.51;76.89;103397.34;4859645;29;20106;-46
2022/01/24 02:04:48;;;;;;;17.20;13.32;;;;;;;6.51;77.00;103394.63;4860923;29;20458;-47
2022/01/24 02:07:17;;;;;;;15.73;13.18;;;;;;;6.53;76.50;103400.72;4860565;29;20381;-48
2022/01/24 02:09:46;;;;;;;15.38;12.77;;;;;;;6.52;75.50;103393.63;4860742;29;20045;-49
2022/01/24 02:12:17;;;;;;;16.38;12.73;;;;;;;6.49;76.68;103383.13;4860504;29;20065;-46
2022/01/24 02:14:54;;;;;;;15.98;12.73;;;;;;;6.48;76.65;103381.44;4860253;29;20122;-46
2022/01/24 02:17:45;;;;;;;17.42;13.45;;;;;;;6.47;76.38;103396.00;4860993;29;20052;-47
2022/01/24 02:21:08;;;;;;;17.77;13.13;;;;;;;6.47;77.21;103379.75;4843956;29;20516;-44
2022/01/24 02:23:18;;;;;;;18.13;13.13;;;;;;;6.47;76.94;103380.59;4852797;29;20061;-47
2022/01/24 02:25:47;;;;;;;15.85;13.00;;;;;;;6.50;77.42;103376.69;4860926;29;20453;-51
2022/01/24 02:28:17;;;;;;;16.90;12.80;;;;;;;6.52;77.45;103371.94;4861057;29;20109;-46
2022/01/24 02:33:20;;;;;;;17.25;13.38;;;;;;;6.52;76.61;103371.94;4860492;29;20106;-44
2022/01/24 02:35:48;;;;;;;16.92;13.30;;;;;;;6.53;76.98;103379.03;4860438;29;20078;-44
2022/01/24 02:49:35;;;;;;;15.75;11.95;;;;;;;6.51;77.03;103375.66;4860458;29;20124;-47
2022/01/24 02:52:12;;;;;;;15.68;12.25;;;;;;;6.52;76.22;103366.53;4860390;29;20481;-47
2022/01/24 02:54:41;;;;;;;15.73;12.30;;;;;;;6.51;76.63;103364.81;4859842;29;20045;-48
2022/01/24 02:57:09;;;;;;;14.50;11.85;;;;;;;6.52;77.01;103366.53;4860424;29;20469;-47
2022/01/24 02:59:37;;;;;;;15.82;12.65;;;;;;;6.53;76.16;103362.78;4859875;29;20548;-49
2022/01/24 03:02:05;;;;;;;17.40;12.68;;;;;;;6.52;75.52;103366.53;4860456;29;20058;-46
2022/01/24 03:04:36;;;;;;;13.80;11.73;;;;;;;6.49;75.67;103364.16;4863679;29;20048;-47
2022/01/24 03:07:04;;;;;;;14.32;11.32;;;;;;;6.47;76.06;103358.94;4864036;29;20050;-45
2022/01/24 03:09:33;;;;;;;13.95;11.85;;;;;;;6.46;76.33;103357.22;4863866;29;20082;-49
2022/01/24 03:12:12;;;;;;;15.38;12.45;;;;;;;6.46;76.74;103357.22;4862397;29;20049;-47
2022/01/24 03:14:39;;;;;;;14.77;12.15;;;;;;;6.46;76.57;103356.41;4863424;29;20042;-46
2022/01/24 03:17:07;;;;;;;15.20;12.52;;;;;;;6.44;77.22;103350.31;4863624;29;20053;-47
2022/01/24 03:19:35;;;;;;;17.23;13.23;;;;;;;6.41;77.22;103346.09;4863817;29;20049;-51
2022/01/24 03:22:03;;;;;;;16.30;12.70;;;;;;;6.39;77.14;103346.25;4863155;29;20074;-48
2022/01/24 03:24:31;;;;;;;17.23;12.55;;;;;;;6.43;77.93;103351.34;4855661;29;20053;-50
2022/01/24 03:26:58;;;;;;;14.27;11.73;;;;;;;6.44;76.78;103353.03;4862713;29;20557;-48
2022/01/24 03:29:26;;;;;;;17.00;11.82;;;;;;;6.43;77.25;103344.06;4863080;29;20073;-48
2022/01/24 03:31:54;;;;;;;16.17;12.10;;;;;;;6.43;76.58;103348.63;4862959;29;20553;-47
2022/01/24 03:34:22;;;;;;;16.27;12.15;;;;;;;6.42;77.06;103349.66;4863309;29;20069;-47
2022/01/24 03:36:49;;;;;;;16.77;11.85;;;;;;;6.38;76.54;103347.31;4863440;29;20049;-48
2022/01/24 03:39:17;;;;;;;18.13;12.90;;;;;;;6.36;76.90;103348.50;4863471;29;20049;-48
2022/01/24 03:41:44;;;;;;;15.20;12.27;;;;;;;6.37;77.16;103352.88;4863540;29;20105;-49
2022/01/24 03:44:14;;;;;;;15.02;11.95;;;;;;;6.36;77.32;103349.34;4863853;29;20098;-49
2022/01/24 03:49:48;;;;;;;17.75;12.88;;;;;;;6.31;77.96;103349.03;4863080;29;20053;-47
2022/01/24 03:52:20;;;;;;;16.50;11.90;;;;;;;6.30;77.18;103347.34;4862653;29;20045;-47
2022/01/24 03:54:49;;;;;;;15.50;12.73;;;;;;;6.31;77.17;103349.03;4862798;29;20048;-47
2022/01/24 03:57:19;;;;;;;16.20;12.20;;;;;;;6.32;77.06;103342.59;4862394;29;20118;-45
2022/01/24 03:59:47;;;;;;;15.13;12.55;;;;;;;6.37;76.92;103340.22;4862889;29;20441;-44
2022/01/24 04:02:16;;;;;;;16.88;12.65;;;;;;;6.36;76.55;103341.22;4862844;29;20042;-45
2022/01/24 04:04:44;;;;;;;16.30;12.90;;;;;;;6.35;76.97;103336.84;4862849;29;20046;-45
2022/01/24 04:07:12;;;;;;;14.68;12.48;;;;;;;6.36;76.90;103341.22;4862700;29;20049;-44
2022/01/24 04:09:41;;;;;;;16.90;12.68;;;;;;;6.37;77.29;103340.22;4862733;29;20038;-46
2022/01/24 04:12:10;;;;;;;16.95;12.45;;;;;;;6.39;77.08;103346.25;4862585;29;20045;-48
2022/01/24 04:15:27;;;;;;;16.85;12.65;;;;;;;6.41;77.31;103337.97;4861594;29;20427;-47
2022/01/24 04:17:37;;;;;;;16.40;13.43;;;;;;;6.39;76.81;103340.84;4837317;29;20118;-47
2022/01/24 04:22:53;;;;;;;15.45;12.98;;;;;;;6.39;77.18;103332.72;4845938;29;20455;-47
2022/01/24 04:25:23;;;;;;;17.15;13.75;;;;;;;6.38;77.14;103333.75;4863388;29;20045;-46
2022/01/24 04:27:54;;;;;;;17.38;13.23;;;;;;;6.38;77.68;103333.75;4862289;29;20049;-47
2022/01/24 04:30:26;;;;;;;17.38;13.60;;;;;;;6.37;77.53;103334.78;4862674;29;20053;-52
2022/01/24 04:32:54;;;;;;;19.20;13.80;;;;;;;6.36;77.42;103341.22;4862606;29;20069;-45
2022/01/24 04:35:21;;;;;;;16.33;13.10;;;;;;;6.32;77.24;103337.16;4861494;29;20565;-47
2022/01/24 04:37:49;;;;;;;16.08;12.63;;;;;;;6.29;78.07;103342.94;4862210;29;20038;-46
2022/01/24 04:40:17;;;;;;;15.43;12.05;;;;;;;6.30;77.44;103347.34;4862637;29;20053;-44
2022/01/24 04:42:50;;;;;;;16.10;12.27;;;;;;;6.31;77.08;103343.63;4862393;29;20114;-46
2022/01/24 04:56:08;;;;;;;16.83;13.35;;;;;;;6.40;76.42;103344.44;4822551;29;20058;-48
2022/01/24 04:58:35;;;;;;;15.15;12.25;;;;;;;6.38;75.58;103350.00;4823197;29;20054;-46
2022/01/24 05:01:03;;;;;;;15.77;13.18;;;;;;;6.35;75.17;103354.91;4823213;29;20115;-48
2022/01/24 05:03:31;;;;;;;16.40;12.65;;;;;;;6.31;76.24;103349.03;4823111;29;20038;-47
2022/01/24 05:05:58;;;;;;;15.60;12.13;;;;;;;6.31;75.67;103351.72;4822459;29;20051;-48
2022/01/24 05:08:26;;;;;;;16.23;13.10;;;;;;;6.30;75.85;103350.06;4822991;29;20061;-47
2022/01/24 05:11:09;;;;;;;16.35;12.07;;;;;;;6.30;76.32;103352.78;4823112;29;20058;-47
2022/01/24 05:24:31;;;;;;;;;;;;;;;6.35;75.90;103347.66;4823254;29;20407;-46
2022/01/24 05:26:59;;;;;;;16.42;11.95;;;;;;;6.32;75.76;103348.00;4829791;29;19943;-47
2022/01/24 05:29:27;;;;;;;16.20;13.05;;;;;;;6.32;76.22;103339.03;4861499;29;20038;-50
2022/01/24 05:31:56;;;;;;;15.10;12.27;;;;;;;6.27;76.35;103336.84;4860097;29;20109;-48
2022/01/24 05:34:24;;;;;;;16.63;12.80;;;;;;;6.21;76.04;103337.59;4861342;29;20061;-46
2022/01/24 05:36:52;;;;;;;13.65;11.27;;;;;;;6.21;76.13;103339.44;4861484;29;20097;-46
2022/01/24 05:39:19;;;;;;;16.70;11.88;;;;;;;6.23;76.52;103338.25;4860871;29;20473;-45
2022/01/24 05:41:47;;;;;;;15.65;12.60;;;;;;;6.26;75.97;103342.47;4861108;29;20500;-48
2022/01/24 05:44:14;;;;;;;16.10;12.25;;;;;;;6.25;75.54;103347.00;4861309;29;20050;-45
2022/01/24 05:46:42;;;;;;;15.38;11.65;;;;;;;6.19;75.15;103342.31;4860807;29;20094;-46
2022/01/24 05:49:10;;;;;;;15.10;11.82;;;;;;;6.19;75.27;103345.03;4860787;29;20045;-44
2022/01/24 05:51:37;;;;;;;15.65;12.35;;;;;;;6.21;75.40;103342.16;4860857;29;20052;-43
2022/01/24 05:54:07;;;;;;;16.15;12.35;;;;;;;6.25;75.34;103340.75;4861462;29;20046;-48
2022/01/24 05:56:34;;;;;;;16.45;12.80;;;;;;;6.29;75.71;103347.53;4861292;29;20401;-48
2022/01/24 05:59:02;;;;;;;16.67;12.07;;;;;;;6.31;75.61;103343.63;4861322;29;20051;-47
2022/01/24 06:01:29;;;;;;;15.43;12.18;;;;;;;6.32;75.56;103349.88;4860417;29;20489;-49
2022/01/24 06:03:57;;;;;;;16.67;12.35;;;;;;;6.33;75.58;103349.69;4861083;29;20041;-45
2022/01/24 06:06:27;;;;;;;17.35;12.43;;;;;;;6.33;75.28;103349.69;4860832;29;20049;-47
2022/01/24 06:08:55;;;;;;;16.58;12.35;;;;;;;6.32;75.02;103345.28;4861104;29;20097;-47
2022/01/24 06:11:24;;;;;;;16.83;11.82;;;;;;;6.32;75.25;103344.44;4860795;29;20473;-46
2022/01/24 06:13:52;;;;;;;15.43;12.10;;;;;;;6.32;75.79;103339.88;4860733;29;20386;-46
2022/01/24 06:16:20;;;;;;;16.45;12.30;;;;;;;6.32;75.69;103344.44;4859961;29;20068;-45
2022/01/24 06:18:48;;;;;;;16.95;12.80;;;;;;;6.31;75.36;103349.03;4860779;29;20045;-47
2022/01/24 06:21:15;;;;;;;17.38;12.77;;;;;;;6.30;75.94;103350.06;4860247;29;20046;-46
2022/01/24 06:23:43;;;;;;;16.25;12.75;;;;;;;6.28;75.74;103348.56;4860741;29;20102;-47
2022/01/24 06:26:12;;;;;;;16.52;11.95;;;;;;;6.25;76.22;103344.31;4860720;29;20037;-45
2022/01/24 06:28:40;;;;;;;16.75;12.20;;;;;;;6.22;76.78;103350.09;4860141;29;20527;-49
2022/01/24 06:31:07;;;;;;;15.73;12.43;;;;;;;6.22;76.58;103355.50;4860058;29;20045;-49
2022/01/24 06:33:35;;;;;;;15.50;11.82;;;;;;;6.21;76.96;103343.00;4860601;29;20082;-46
2022/01/24 06:36:03;;;;;;;19.17;13.10;;;;;;;6.22;77.61;103347.38;4860442;29;20048;-49
2022/01/24 06:38:30;;;;;;;17.02;12.80;;;;;;;6.25;77.59;103343.47;4862963;29;20412;-47
2022/01/24 06:40:58;;;;;;;16.40;12.75;;;;;;;6.27;77.57;103342.28;4864155;29;20048;-49
2022/01/24 06:43:26;;;;;;;16.65;13.00;;;;;;;6.28;77.84;103337.72;4864100;29;20136;-48
2022/01/24 06:45:54;;;;;;;16.45;12.63;;;;;;;6.27;77.31;103346.84;4863867;29;20381;-48
2022/01/24 06:48:21;;;;;;;16.67;12.98;;;;;;;6.17;77.51;103344.38;4863334;29;20061;-49
2022/01/24 06:50:50;;;;;;;18.65;13.93;;;;;;;6.14;78.58;103339.31;4863693;29;20052;-48
2022/01/24 06:53:17;;;;;;;19.75;13.18;;;;;;;6.15;78.35;103349.94;4863890;29;20042;-47
2022/01/24 06:55:45;;;;;;;17.45;13.50;;;;;;;6.16;77.79;103340.81;4863931;29;20054;-49
2022/01/24 06:58:12;;;;;;;18.50;14.05;;;;;;;6.18;77.24;103351.44;4863764;29;20101;-48
2022/01/24 07:00:40;;;;;;;17.42;13.65;;;;;;;6.15;77.27;103346.41;4863665;29;20038;-47
2022/01/24 07:03:07;;;;;;;17.52;13.23;;;;;;;6.14;77.22;103352.84;4863697;29;20042;-45
2022/01/24 07:05:35;;;;;;;17.50;13.82;;;;;;;6.11;77.34;103348.63;4863959;29;20053;-46
2022/01/24 07:08:03;;;;;;;16.67;13.27;;;;;;;6.11;77.43;103359.44;4863720;29;20107;-48
2022/01/24 07:10:30;;;;;;;16.30;13.18;;;;;;;6.13;78.17;103352.00;4863893;29;20097;-46
2022/01/24 07:12:58;;;;;;;17.35;13.18;;;;;;;6.17;77.93;103355.19;4191767;29;10000531;-48
2022/01/24 07:15:32;;;;;;;19.33;13.75;;;;;;;6.18;77.69;103359.56;4862354;29;20441;-47
2022/01/24 07:20:35;;;;;;;19.80;14.70;;;;;;;6.19;78.44;103361.28;4860760;29;20068;-46
2022/01/24 07:23:04;;;;;;;17.65;14.25;;;;;;;6.19;77.87;103356.69;4859985;29;20081;-46
2022/01/24 07:25:31;;;;;;;16.10;13.98;;;;;;;6.18;78.36;103362.28;4860395;29;20046;-44
2022/01/24 07:27:59;;;;;;;17.17;14.27;;;;;;;6.15;78.33;103359.94;4860037;29;20041;-45
2022/01/24 07:30:27;;;;;;;20.98;13.55;;;;;;;6.15;78.11;103368.06;4860453;29;20053;-45
2022/01/24 07:32:54;;;;;;;20.38;14.48;;;;;;;6.13;78.63;103364.66;4860307;29;20045;-45
2022/01/24 07:35:22;;;;;;;20.05;14.40;;;;;;;6.10;78.65;103362.31;4860043;29;20049;-46
2022/01/24 07:37:49;;;;;;;20.73;15.10;;;;;;;6.10;78.95;103368.56;4860059;29;20037;-49
2022/01/24 07:40:18;;;;;;;20.13;15.13;;;;;;;6.11;79.36;103364.00;4860372;29;20046;-44
2022/01/24 07:45:31;;;;;;;19.20;14.48;;;;;;;6.06;79.39;103371.81;4843454;29;20069;-47
2022/01/24 07:47:59;;;;;;;19.83;15.10;;;;;;;6.06;79.41;103372.66;4859871;29;20046;-47
2022/01/24 07:50:27;;;;;;;19.60;15.38;;;;;;;6.03;79.19;103374.88;4858921;29;20050;-45
2022/01/24 07:52:55;;;;;;;19.95;15.02;;;;;;;5.97;79.22;103385.38;4859478;29;20045;-47
2022/01/24 07:55:23;;;;;;;19.60;14.52;;;;;;;5.96;79.95;103396.38;4860087;29;20054;-47
2022/01/24 07:57:50;;;;;;;18.83;14.45;;;;;;;5.98;79.57;103397.03;4859453;29;20615;-47
2022/01/24 08:00:18;;;;;;;17.90;14.57;;;;;;;6.00;79.74;103389.59;4859775;29;20041;-47
2022/01/24 08:02:45;;;;;;;18.73;15.05;;;;;;;6.02;79.28;103392.97;4859337;29;20041;-46
2022/01/24 08:05:14;;;;;;;21.45;15.30;;;;;;;6.03;79.41;103399.22;4841071;29;20057;-47
2022/01/24 08:07:42;;;;;;;19.63;15.52;;;;;;;6.03;79.76;103402.78;4852295;29;20049;-46
2022/01/24 08:10:09;;;;;;;20.15;15.68;;;;;;;6.04;79.92;103398.19;4860272;29;20046;-46
2022/01/24 08:12:38;;;;;;;18.00;14.23;;;;;;;6.07;79.83;103397.88;4859235;29;20531;-47
2022/01/24 08:15:08;;;;;;;21.73;14.98;;;;;;;6.08;80.19;103396.84;4859210;29;20042;-47
2022/01/24 08:17:36;;;;;;;20.10;14.27;;;;;;;6.09;79.92;103403.97;4859095;29;20053;-44
2022/01/24 08:20:04;;;;;;;19.05;15.63;;;;;;;6.07;79.79;103401.41;4859333;29;20049;-46
2022/01/24 08:22:32;;;;;;;20.08;14.15;;;;;;;6.05;79.54;103391.78;4859132;29;20077;-46
2022/01/24 08:25:03;;;;;;;17.90;14.38;;;;;;;6.01;79.62;103402.09;4858845;29;20771;-45
2022/01/24 08:27:32;;;;;;;20.90;15.60;;;;;;;5.98;79.82;103392.47;4859242;29;20136;-51
2022/01/24 08:30:00;;;;;;;18.83;14.27;;;;;;;6.00;80.03;103391.47;4858610;29;20049;-47
2022/01/24 08:32:27;;;;;;;18.08;14.48;;;;;;;6.02;80.04;103403.81;4859302;29;20619;-45
2022/01/24 08:34:56;;;;;;;20.50;15.43;;;;;;;6.05;79.51;103391.78;4858958;29;20049;-47
2022/01/24 08:37:31;;;;;;;22.58;14.48;;;;;;;5.98;80.03;103403.28;4857922;29;20045;-48
2022/01/24 08:40:00;;;;;;;19.13;15.02;;;;;;;5.94;80.06;103401.97;4858534;29;20120;-43
2022/01/24 08:42:44;;;;;;;21.02;14.25;;;;;;;5.98;80.06;103406.00;4858010;29;20053;-48
2022/01/24 08:48:00;;;;;;;20.27;14.75;;;;;;;6.03;79.81;103401.94;4858480;29;20053;-46
2022/01/24 08:50:28;;;;;;;17.90;14.43;;;;;;;6.06;79.48;103402.44;4858706;29;20053;-45
2022/01/24 08:53:03;;;;;;;17.73;13.80;;;;;;;6.06;79.20;103405.16;4858512;29;20436;-48
2022/01/24 08:55:32;;;;;;;18.35;14.02;;;;;;;6.01;79.41;103401.25;4858770;29;20393;-46
2022/01/24 08:58:03;;;;;;;17.67;13.90;;;;;;;5.96;79.82;103407.19;4858154;29;20065;-49
2022/01/24 09:00:31;;;;;;;19.05;14.25;;;;;;;5.95;79.85;103403.66;4857986;29;20048;-48
2022/01/24 09:02:59;;;;;;;19.08;13.90;;;;;;;5.95;79.91;103408.22;4858582;29;20058;-47
2022/01/24 09:05:34;;;;;;;19.35;14.60;;;;;;;5.97;80.15;103404.31;4858400;29;20129;-48
2022/01/24 09:08:03;;;;;;;18.13;12.88;;;;;;;5.98;79.63;103400.59;4858606;29;20046;-49
2022/01/24 09:10:32;;;;;;;17.55;12.38;;;;;;;6.01;79.12;103406.66;4858033;29;20058;-48
2022/01/24 09:13:00;;;;;;;15.90;12.27;;;;;;;6.04;78.92;103401.78;4858318;29;20041;-46
2022/01/24 09:15:28;;;;;;;14.43;11.60;;;;;;;6.07;78.92;103403.28;4857113;29;20045;-49
2022/01/24 09:17:55;;;;;;;17.25;12.15;;;;;;;6.09;78.60;103404.78;4858070;29;20061;-47
2022/01/24 09:20:23;;;;;;;15.80;12.18;;;;;;;6.10;78.60;103405.63;4857382;29;20078;-48
2022/01/24 09:22:51;;;;;;;18.73;12.85;;;;;;;6.08;78.20;103400.38;4859039;29;20046;-46
2022/01/24 09:25:20;;;;;;;18.75;13.38;;;;;;;6.07;78.63;103406.81;4861103;29;20045;-49
2022/01/24 09:27:48;;;;;;;16.20;12.52;;;;;;;6.06;78.26;103404.28;4861342;29;20057;-48
2022/01/24 09:30:18;;;;;;;18.42;12.13;;;;;;;6.04;78.48;103414.44;4861140;29;20065;-45
2022/01/24 09:32:46;;;;;;;15.75;11.75;;;;;;;6.02;78.44;103413.78;4861292;29;20386;-48
2022/01/24 09:35:15;;;;;;;16.60;12.30;;;;;;;6.03;78.26;103400.06;4861237;29;20050;-47
2022/01/24 09:37:45;;;;;;;14.70;11.40;;;;;;;6.03;78.28;103410.06;4860965;29;20053;-43
2022/01/24 09:40:15;;;;;;;17.63;12.02;;;;;;;5.98;78.30;103413.28;4860617;29;20057;-44
2022/01/24 09:42:44;;;;;;;15.05;10.88;;;;;;;5.96;78.30;103408.06;4861315;29;20473;-45
2022/01/24 09:45:13;;;;;;;14.57;10.63;;;;;;;6.00;78.01;103405.00;4860267;29;20049;-48
2022/01/24 09:47:40;;;;;;;16.42;11.70;;;;;;;6.03;78.08;103404.63;4860265;29;20050;-47
2022/01/24 09:50:09;;;;;;;15.23;9.52;;;;;;;6.06;78.19;103397.03;4855930;29;20042;-51
2022/01/24 09:52:40;;;;;;;21.88;10.95;;;;;;;6.07;77.81;103400.56;4859729;29;20048;-44
2022/01/24 09:55:09;;;;;;;15.90;11.77;;;;;;;6.08;78.14;103402.25;4860510;29;20049;-48
2022/01/24 09:57:37;;;;;;;13.32;10.02;;;;;;;6.10;78.19;103405.63;4860104;29;20065;-47
2022/01/24 10:00:08;;;;;;;21.40;12.23;;;;;;;6.10;78.24;103406.47;4860487;29;20064;-50
2022/01/24 10:02:40;;;;;;;16.17;10.70;;;;;;;6.15;78.43;103405.94;4860575;29;20555;-45
2022/01/24 10:05:18;;;;;;;13.65;10.75;;;;;;;6.15;78.32;103397.81;4860773;29;20052;-46
2022/01/24 10:07:55;;;;;;;17.35;10.48;;;;;;;6.11;77.92;103400.06;4860891;29;20084;-46
2022/01/24 10:10:41;;;;;;;14.75;10.35;;;;;;;6.03;78.06;103396.53;4860421;29;20509;-48
2022/01/24 10:16:43;;;;;;;14.43;10.27;;;;;;;5.93;78.67;103400.22;4861217;29;20054;-42
2022/01/24 10:19:21;;;;;;;14.18;9.95;;;;;;;5.94;78.90;103403.81;4860615;29;20045;-44
2022/01/24 10:22:03;;;;;;;15.57;8.75;;;;;;;5.96;77.13;103408.06;4860465;29;20049;-44
2022/01/24 10:24:44;;;;;;;12.25;8.30;;;;;;;5.90;77.27;103406.00;4861400;29;20072;-48
2022/01/24 10:27:24;;;;;;;11.85;7.22;;;;;;;5.91;77.83;103407.66;4860909;29;20060;-43
2022/01/24 10:29:56;;;;;;;13.90;8.50;;;;;;;5.92;76.98;103413.94;4860229;29;20044;-44
2022/01/24 10:32:34;;;;;;;11.75;7.75;;;;;;;5.87;77.34;103400.94;4860222;29;20057;-43
2022/01/24 10:35:30;;;;;;;12.15;7.20;;;;;;;5.94;77.47;103399.25;4860509;29;20045;-46
2022/01/24 10:38:21;;;;;;;;;;;;;;;6.01;77.75;103385.03;4861055;29;20497;-46
2022/01/24 10:40:55;;;;;;;10.07;7.25;;;;;;;6.07;77.13;103392.47;4860149;29;20393;-43
2022/01/24 10:43:25;;;;;;;15.70;7.47;;;;;;;6.20;78.48;103387.31;4844046;29;20076;-44
2022/01/24 10:45:55;;;;;;;12.73;7.22;;;;;;;6.24;77.35;103385.13;4860308;29;20053;-47
2022/01/24 10:48:33;;;;;;;8.98;6.35;;;;;;;6.24;76.51;103391.38;4860244;29;20042;-45
2022/01/24 10:51:13;;;;;;;9.73;6.60;;;;;;;6.25;75.57;103387.63;4859169;29;20378;-45
2022/01/24 10:53:42;;;;;;;9.25;6.70;;;;;;;6.26;75.09;103385.78;4860317;29;20101;-48
2022/01/24 10:56:31;;;;;;;10.57;7.35;;;;;;;6.27;75.40;103380.19;4860541;29;20050;-48
2022/01/24 10:59:22;;;;;;;8.50;6.13;;;;;;;6.28;74.98;103378.34;4859871;29;20386;-47
2022/01/24 11:01:54;;;;;;;10.27;6.60;;;;;;;6.27;75.26;103377.47;4843219;29;20049;-47
2022/01/24 11:04:24;;;;;;;13.25;6.97;;;;;;;6.33;75.66;103379.47;4860335;29;20370;-47
2022/01/24 11:07:01;;;;;;;11.80;7.65;;;;;;;6.33;75.86;103365.94;4860409;29;20072;-45
2022/01/24 11:09:31;;;;;;;12.25;7.13;;;;;;;6.33;74.96;103374.06;4843177;29;20470;-44
2022/01/24 11:12:10;;;;;;;9.48;6.85;;;;;;;6.32;74.28;103372.38;4859950;29;20094;-47
2022/01/24 11:14:45;;;;;;;13.57;8.32;;;;;;;6.33;74.31;103368.66;4860379;29;20053;-46
2022/01/24 11:17:18;;;;;;;11.52;8.68;;;;;;;6.24;73.87;103369.72;4186581;29;10001194;-45
2022/01/24 11:19:51;;;;;;;13.73;8.75;;;;;;;6.18;74.64;103367.69;4856942;29;20140;-46
2022/01/24 11:22:20;;;;;;;12.23;8.63;;;;;;;6.18;74.62;103359.56;4856636;29;20050;-48
2022/01/24 11:24:55;;;;;;;13.10;9.98;;;;;;;6.19;74.69;103366.69;4843250;29;20136;-46
2022/01/24 11:27:36;;;;;;;10.88;8.27;;;;;;;6.23;74.74;103361.75;4860068;29;20132;-45
2022/01/24 11:30:29;;;;;;;11.98;7.68;;;;;;;6.27;75.00;103352.25;4860312;29;20045;-47
2022/01/24 11:33:04;;;;;;;12.23;8.38;;;;;;;6.29;74.79;103356.47;4843677;29;20041;-46
2022/01/24 11:35:38;;;;;;;12.77;8.27;;;;;;;6.29;73.95;103353.78;4843851;29;20129;-46
2022/01/24 11:38:26;;;;;;;12.45;8.57;;;;;;;6.26;73.57;103361.41;4859916;29;20037;-45
2022/01/24 11:41:00;;;;;;;14.20;9.93;;;;;;;6.12;74.77;103363.00;4860207;29;20049;-46
2022/01/24 11:43:41;;;;;;;12.57;8.40;;;;;;;6.03;75.13;103370.28;4859043;29;20046;-44
2022/01/24 11:46:30;;;;;;;13.27;8.32;;;;;;;6.03;75.65;103366.75;4860200;29;20128;-44
2022/01/24 11:49:08;;;;;;;11.60;8.68;;;;;;;6.05;75.81;103362.00;4861422;29;20053;-48
2022/01/24 11:51:37;;;;;;;10.60;7.70;;;;;;;6.07;76.00;103357.28;4862903;29;20056;-49
2022/01/24 11:54:30;;;;;;;14.88;10.00;;;;;;;6.13;75.86;103349.31;4862665;29;20298;-48
2022/01/24 11:57:25;;;;;;;15.60;11.45;;;;;;;6.19;75.60;103350.44;4846413;29;20061;-48
2022/01/24 12:00:18;;;;;;;18.05;13.50;;;;;;;6.22;74.56;103344.66;4862721;29;20401;-46
2022/01/24 12:02:50;;;;;;;16.80;12.65;;;;;;;6.21;75.01;103340.28;4845449;29;20044;-46
2022/01/24 12:05:17;;;;;;;18.92;14.15;;;;;;;6.24;75.42;103342.63;4861652;29;20102;-46
2022/01/24 12:07:55;;;;;;;22.25;13.18;;;;;;;6.26;75.64;103339.75;4845913;29;20049;-49
2022/01/24 12:10:34;;;;;;;20.48;15.48;;;;;;;6.25;74.49;103338.91;4862459;29;20464;-47
2022/01/24 12:13:21;;;;;;;19.58;15.13;;;;;;;6.21;74.32;103342.16;4845595;29;20528;-48
2022/01/24 12:15:48;;;;;;;19.08;15.25;;;;;;;6.14;74.84;103344.72;4862711;29;20057;-46
2022/01/24 12:18:28;;;;;;;21.80;16.65;;;;;;;6.11;74.62;103343.22;4862470;29;20050;-47
2022/01/24 12:21:05;;;;;;;18.75;15.63;;;;;;;6.12;74.96;103347.59;4845895;29;20050;-46
2022/01/24 12:23:39;;;;;;;21.33;16.95;;;;;;;6.16;75.08;103350.81;4862324;29;20053;-47
2022/01/24 12:26:32;;;;;;;18.92;15.80;;;;;;;6.22;74.89;103344.66;4862262;29;20045;-47
2022/01/24 12:29:04;;;;;;;21.73;16.70;;;;;;;6.23;74.44;103340.09;4862336;29;20052;-48
2022/01/24 12:31:50;;;;;;;22.50;17.38;;;;;;;6.20;74.13;103330.47;4862265;29;20056;-46
2022/01/24 12:34:28;;;;;;;18.67;14.52;;;;;;;6.19;74.87;103326.09;4862656;29;20052;-48
2022/01/24 12:37:02;;;;;;;22.73;17.27;;;;;;;6.25;75.60;103325.34;4862623;29;20072;-48
2022/01/24 12:39:37;;;;;;;24.63;18.63;;;;;;;6.29;76.37;103318.56;4862408;29;20382;-48
2022/01/24 12:42:14;;;;;;;21.38;16.95;;;;;;;6.27;74.31;103315.19;4845744;29;20523;-47
2022/01/24 12:47:13;;;;;;;20.85;14.60;;;;;;;6.23;74.69;103305.78;4847427;29;20072;-48
2022/01/24 12:49:42;;;;;;;18.02;13.85;;;;;;;6.29;75.41;103307.75;4864599;29;20527;-48
2022/01/24 12:52:13;;;;;;;17.65;14.68;;;;;;;6.32;75.38;103304.66;4862102;29;20045;-47
2022/01/24 12:54:43;;;;;;;17.88;15.00;;;;;;;6.34;74.90;103307.22;4861320;29;20476;-46
2022/01/24 12:57:14;;;;;;;20.58;14.90;;;;;;;6.35;74.46;103298.94;4861667;29;20085;-48
2022/01/24 12:59:54;;;;;;;23.45;18.95;;;;;;;6.36;74.62;103297.88;4861535;29;20543;-45
2022/01/24 13:02:33;;;;;;;20.35;16.25;;;;;;;6.39;75.01;103300.22;4858848;29;20056;-45
2022/01/24 13:05:23;;;;;;;21.70;17.67;;;;;;;6.44;74.88;103294.28;4861490;29;20060;-42
2022/01/24 13:07:53;;;;;;;21.63;17.35;;;;;;;6.47;74.71;103293.06;4861152;29;20060;-47
2022/01/24 13:10:23;;;;;;;20.73;16.85;;;;;;;6.48;74.77;103287.50;4861706;29;20045;-47
2022/01/24 13:13:03;;;;;;;19.60;16.50;;;;;;;6.48;74.46;103286.66;4862118;29;20049;-48
2022/01/24 13:21:16;;;;;;;21.02;16.92;;;;;;;6.46;74.36;103289.53;4860745;29;20048;-44
2022/01/24 13:23:51;;;;;;;21.67;17.30;;;;;;;6.43;73.62;103289.06;4849386;29;20073;-44
2022/01/24 13:26:20;;;;;;;21.13;17.88;;;;;;;6.39;73.77;103291.28;4861183;29;20048;-46